Time;durP1;ratioP1;P1;durP2;ratioP2;P2;SDS_P1;SDS_P2;PMS_P1;PMS_P2;Temp;Humidity;BMP_temperature;BMP_pressure;BME280_temperature;BME280_humidity;BME280_pressure;Samples;Min_cycle;Max_cycle;Signal;HPM_P1;HPM_P2
2022/08/27 00:00:45;;;;;;;52.97;28.13;;;;;;;17.33;100.00;97179.44;5046681;28;20726;-69
2022/08/27 00:03:12;;;;;;;54.42;28.35;;;;;;;17.30;100.00;97182.78;5054048;28;20044;-70
2022/08/27 00:05:39;;;;;;;58.45;30.23;;;;;;;17.34;100.00;97166.56;5046384;28;20087;-68
2022/08/27 00:08:07;;;;;;;55.58;30.27;;;;;;;17.33;100.00;97167.66;5047186;28;20321;-68
2022/08/27 00:10:34;;;;;;;58.08;30.25;;;;;;;17.32;100.00;97168.78;5046081;28;20106;-71
2022/08/27 00:13:01;;;;;;;52.97;29.10;;;;;;;17.27;100.00;97166.94;5045610;28;20385;-69
2022/08/27 00:15:28;;;;;;;48.15;28.13;;;;;;;17.18;100.00;97157.81;5054671;28;20040;-69
2022/08/27 00:17:55;;;;;;;47.13;29.33;;;;;;;17.16;100.00;97156.19;5065928;28;20037;-70
2022/08/27 00:20:24;;;;;;;45.15;29.05;;;;;;;17.14;100.00;97155.66;5051161;28;20044;-68
2022/08/27 00:22:52;;;;;;;49.88;31.30;;;;;;;17.14;100.00;97149.41;5046841;28;20048;-70
2022/08/27 00:25:20;;;;;;;54.45;32.90;;;;;;;17.14;100.00;97150.19;5045926;28;20443;-69
2022/08/27 00:27:46;;;;;;;61.28;35.80;;;;;;;17.16;100.00;97149.91;5045312;28;20040;-69
2022/08/27 00:30:16;;;;;;;65.28;39.17;;;;;;;17.20;100.00;97144.63;5045979;28;20115;-69
2022/08/27 00:32:43;;;;;;;71.47;40.83;;;;;;;17.22;100.00;97145.16;5050060;28;20044;-68
2022/08/27 00:35:11;;;;;;;78.00;42.60;;;;;;;17.28;100.00;97143.94;5054481;28;20048;-70
2022/08/27 00:37:37;;;;;;;66.07;41.63;;;;;;;17.23;100.00;97144.88;5040260;28;20056;-68
2022/08/27 00:40:06;;;;;;;67.60;40.13;;;;;;;17.24;100.00;97143.75;5040314;28;20055;-71
2022/08/27 00:42:33;;;;;;;70.57;40.72;;;;;;;17.20;100.00;97136.44;5041054;28;20049;-68
2022/08/27 00:45:00;;;;;;;67.40;40.97;;;;;;;17.21;100.00;97138.88;5045860;28;20041;-71
2022/08/27 00:47:30;;;;;;;70.55;41.38;;;;;;;17.14;100.00;97130.25;5052456;28;20512;-70
2022/08/27 00:50:11;;;;;;;68.80;41.92;;;;;;;17.16;100.00;97136.22;5045443;28;20086;-69
2022/08/27 00:52:45;;;;;;;71.45;40.20;;;;;;;17.18;100.00;97133.19;5045775;28;20037;-71
2022/08/27 00:55:20;;;;;;;70.13;41.05;;;;;;;17.21;100.00;97133.38;5045182;28;20040;-69
2022/08/27 00:57:55;;;;;;;63.13;37.67;;;;;;;17.20;100.00;97136.44;5045143;28;20045;-69
2022/08/27 01:00:21;;;;;;;67.30;37.65;;;;;;;17.21;100.00;97132.59;5045597;28;20106;-68
2022/08/27 01:02:48;;;;;;;65.28;38.22;;;;;;;17.22;100.00;97140.50;5045663;28;20045;-69
2022/08/27 01:05:20;;;;;;;57.33;35.85;;;;;;;17.24;100.00;97142.91;5045792;28;20071;-69
2022/08/27 01:07:50;;;;;;;62.05;35.55;;;;;;;17.21;100.00;97133.38;5049033;28;20041;-68
2022/08/27 01:10:20;;;;;;;56.85;34.97;;;;;;;17.25;100.00;97141.81;5050226;28;20471;-70
2022/08/27 01:12:49;;;;;;;50.42;32.38;;;;;;;17.19;100.00;97145.75;5032957;28;20049;-69
2022/08/27 01:15:21;;;;;;;50.53;32.55;;;;;;;17.23;100.00;97153.06;5051264;28;20040;-69
2022/08/27 01:17:49;;;;;;;54.25;32.90;;;;;;;17.28;100.00;97152.97;5052016;28;20036;-68
2022/08/27 01:20:23;;;;;;;48.75;31.40;;;;;;;17.28;100.00;97154.88;5045706;28;20106;-68
2022/08/27 01:23:01;;;;;;;48.55;32.55;;;;;;;17.22;100.00;97153.38;5045590;28;20059;-69
2022/08/27 01:25:29;;;;;;;39.55;25.65;;;;;;;17.08;100.00;97135.00;5045418;28;20488;-69
2022/08/27 01:27:58;;;;;;;44.10;30.10;;;;;;;17.10;100.00;97134.72;5045228;28;20051;-69
2022/08/27 01:30:24;;;;;;;;;;;;;;;17.08;100.00;97132.28;5045987;28;20462;-68
2022/08/27 01:32:50;;;;;;;;;;;;;;;17.14;100.00;97130.25;5041463;28;19921;-68
2022/08/27 01:35:18;;;;;;;55.65;33.40;;;;;;;17.12;100.00;97140.69;5046029;28;19928;-71
2022/08/27 01:37:48;;;;;;;57.65;33.85;;;;;;;16.97;100.00;97142.53;5049047;28;20541;-68
2022/08/27 01:40:18;;;;;;;50.08;31.52;;;;;;;16.89;100.00;97137.75;5047589;28;20045;-70
2022/08/27 01:42:49;;;;;;;48.67;30.10;;;;;;;16.91;100.00;97130.06;5043437;28;20051;-70
2022/08/27 01:45:28;;;;;;;46.28;28.30;;;;;;;16.94;100.00;97134.94;5033193;28;20049;-68
2022/08/27 01:47:57;;;;;;;48.90;30.50;;;;;;;16.89;100.00;97138.56;5045500;28;20045;-68
2022/08/27 01:50:27;;;;;;;43.55;28.33;;;;;;;16.88;100.00;97136.16;5045280;28;20776;-68
2022/08/27 01:52:55;;;;;;;44.60;29.08;;;;;;;16.92;100.00;97148.09;5044009;28;20041;-70
2022/08/27 01:55:23;;;;;;;;;;;;;;;16.97;100.00;97141.72;5044790;28;20057;-70
2022/08/27 01:57:51;;;;;;;;;;;;;;;16.98;100.00;97146.91;5046258;28;19937;-69
2022/08/27 02:00:19;;;;;;;;;;;;;;;16.98;100.00;97152.38;5049688;28;19921;-70
2022/08/27 02:02:45;;;;;;;;;;;;;;;16.97;100.00;97153.47;5050315;28;20362;-69
2022/08/27 02:05:13;;;;;;;50.03;30.10;;;;;;;16.94;100.00;97155.97;5049128;28;19925;-70
2022/08/27 02:07:41;;;;;;;40.47;25.42;;;;;;;16.93;100.00;97157.94;5051622;28;20215;-68
2022/08/27 02:10:13;;;;;;;39.13;22.88;;;;;;;16.87;100.00;97165.41;5055303;28;20048;-68
2022/08/27 02:12:40;;;;;;;32.03;21.98;;;;;;;16.80;100.00;97155.97;5049482;28;20487;-71
2022/08/27 02:15:07;;;;;;;31.13;21.70;;;;;;;16.81;100.00;97163.03;5054111;28;20033;-68
2022/08/27 02:17:34;;;;;;;33.58;22.23;;;;;;;16.65;100.00;97157.81;5068028;28;20048;-68
2022/08/27 02:20:01;;;;;;;29.73;21.30;;;;;;;16.69;100.00;97158.84;5056779;28;20048;-71
2022/08/27 02:22:27;;;;;;;30.08;18.95;;;;;;;16.58;100.00;97155.44;5048658;28;20060;-68
2022/08/27 02:24:54;;;;;;;32.08;20.70;;;;;;;16.56;100.00;97154.13;5048972;28;20053;-67
2022/08/27 02:27:20;;;;;;;34.50;21.73;;;;;;;16.49;100.00;97159.97;5048828;28;20041;-68
2022/08/27 02:29:47;;;;;;;35.90;22.70;;;;;;;16.47;100.00;97157.53;5047748;28;20052;-69
2022/08/27 02:32:15;;;;;;;37.33;22.50;;;;;;;16.38;100.00;97159.31;5048791;28;20045;-68
2022/08/27 02:34:49;;;;;;;38.92;24.23;;;;;;;16.35;100.00;97165.34;5048705;28;20065;-69
2022/08/27 02:37:16;;;;;;;38.60;22.55;;;;;;;16.34;100.00;97161.00;5046844;28;20041;-67
2022/08/27 02:39:42;;;;;;;44.45;25.02;;;;;;;16.28;100.00;97160.25;5059131;28;20381;-68
2022/08/27 02:42:11;;;;;;;46.72;28.08;;;;;;;16.27;100.00;97157.81;5048530;28;20053;-68
2022/08/27 02:44:38;;;;;;;60.05;35.88;;;;;;;16.22;100.00;97164.19;5049735;28;20083;-68
2022/08/27 02:47:05;;;;;;;66.20;38.08;;;;;;;16.24;100.00;97165.50;5057851;28;20686;-68
2022/08/27 02:49:32;;;;;;;65.85;42.88;;;;;;;16.23;100.00;97163.88;5046810;28;20083;-67
2022/08/27 02:51:59;;;;;;;70.05;44.25;;;;;;;16.30;100.00;97165.44;5046597;28;20044;-70
2022/08/27 02:54:26;;;;;;;67.05;43.50;;;;;;;16.33;100.00;97160.19;5048061;28;20073;-67
2022/08/27 02:56:53;;;;;;;73.78;46.00;;;;;;;16.29;100.00;97159.16;5047825;28;20051;-68
2022/08/27 02:59:21;;;;;;;75.47;48.35;;;;;;;16.30;100.00;97162.69;5047841;28;20053;-69
2022/08/27 03:01:48;;;;;;;79.85;47.45;;;;;;;16.28;100.00;97151.28;5047803;28;20036;-70
2022/08/27 03:04:15;;;;;;;84.68;49.70;;;;;;;16.19;100.00;97162.03;5048233;28;20064;-69
2022/08/27 03:06:42;;;;;;;94.18;52.35;;;;;;;16.16;100.00;97155.25;5047144;28;20048;-68
2022/08/27 03:09:09;;;;;;;93.00;54.60;;;;;;;16.16;100.00;97152.50;5049968;28;20036;-67
2022/08/27 03:11:36;;;;;;;102.20;58.53;;;;;;;16.18;100.00;97154.94;5047906;28;20045;-67
2022/08/27 03:14:02;;;;;;;96.80;53.78;;;;;;;16.13;100.00;97147.63;5047899;28;20110;-67
2022/08/27 03:16:33;;;;;;;91.30;53.08;;;;;;;16.18;100.00;97152.22;5048893;28;20060;-67
2022/08/27 03:19:00;;;;;;;100.88;56.38;;;;;;;16.23;100.00;97152.97;5046124;28;20045;-68
2022/08/27 03:21:26;;;;;;;111.60;58.20;;;;;;;16.21;100.00;97146.97;5046196;28;20654;-69
2022/08/27 03:23:53;;;;;;;100.57;53.30;;;;;;;16.25;100.00;97145.28;5048079;28;20044;-68
2022/08/27 03:26:19;;;;;;;101.03;53.08;;;;;;;16.28;100.00;97151.28;5047249;28;20041;-68
2022/08/27 03:28:46;;;;;;;103.03;51.30;;;;;;;16.35;100.00;97148.97;5047238;28;20745;-67
2022/08/27 03:31:20;;;;;;;106.85;51.60;;;;;;;16.38;100.00;97157.41;5046605;28;20033;-69
2022/08/27 03:33:46;;;;;;;99.40;50.08;;;;;;;16.43;100.00;97155.69;5047804;28;20048;-70
2022/08/27 03:36:13;;;;;;;103.45;50.97;;;;;;;16.51;100.00;97161.28;5047096;28;20041;-67
2022/08/27 03:38:40;;;;;;;103.63;52.03;;;;;;;16.48;100.00;97156.41;5050817;28;20715;-67
2022/08/27 03:41:06;;;;;;;98.25;50.40;;;;;;;16.50;100.00;97156.13;5047811;28;20048;-67
2022/08/27 03:43:33;;;;;;;96.68;49.67;;;;;;;16.52;100.00;97157.44;5046678;28;20045;-68
2022/08/27 03:46:00;;;;;;;93.25;48.25;;;;;;;16.54;100.00;97150.91;5060010;28;20102;-68
2022/08/27 03:48:30;;;;;;;104.00;51.92;;;;;;;16.57;100.00;97156.56;5047360;28;20052;-68
2022/08/27 03:50:57;;;;;;;113.03;53.50;;;;;;;16.60;100.00;97150.53;5046786;28;20098;-67
2022/08/27 03:53:23;;;;;;;112.22;53.05;;;;;;;16.64;100.00;97156.19;5046876;28;20041;-69
2022/08/27 03:55:50;;;;;;;111.20;52.33;;;;;;;16.66;100.00;97158.63;5045057;28;20111;-68
2022/08/27 03:58:16;;;;;;;115.70;55.45;;;;;;;16.66;100.00;97151.22;5044171;28;20044;-68
2022/08/27 04:00:43;;;;;;;108.50;56.45;;;;;;;16.66;100.00;97155.91;5047216;28;20041;-68
2022/08/27 04:03:12;;;;;;;112.10;53.60;;;;;;;16.61;100.00;97148.56;5046591;28;20593;-68
2022/08/27 04:05:41;;;;;;;103.35;50.75;;;;;;;16.62;100.00;97148.28;5046954;28;20598;-68
2022/08/27 04:08:12;;;;;;;99.85;51.20;;;;;;;16.62;100.00;97140.09;5050373;28;20071;-70
2022/08/27 04:10:40;;;;;;;101.05;52.75;;;;;;;16.66;100.00;97140.28;5045595;28;20072;-69
2022/08/27 04:13:06;;;;;;;101.45;51.20;;;;;;;16.69;100.00;97145.16;5046639;28;20517;-69
2022/08/27 04:15:33;;;;;;;93.72;51.17;;;;;;;16.72;100.00;97144.59;5055223;28;20045;-68
2022/08/27 04:18:04;;;;;;;88.95;49.22;;;;;;;16.70;100.00;97137.78;5050827;28;20049;-69
2022/08/27 04:20:31;;;;;;;101.30;52.70;;;;;;;16.74;100.00;97136.88;5045533;28;20040;-67
2022/08/27 04:23:01;;;;;;;98.15;51.72;;;;;;;16.73;100.00;97140.72;5046303;28;20045;-68
2022/08/27 04:25:28;;;;;;;85.45;47.17;;;;;;;16.73;100.00;97148.94;5046440;28;20041;-69
2022/08/27 04:27:54;;;;;;;101.18;51.75;;;;;;;16.68;100.00;97149.03;5045064;28;20045;-70
2022/08/27 04:30:21;;;;;;;96.45;49.75;;;;;;;16.69;100.00;97147.13;5046331;28;20052;-67
2022/08/27 04:32:49;;;;;;;92.72;50.28;;;;;;;16.67;100.00;97147.41;5045884;28;20487;-67
2022/08/27 04:35:16;;;;;;;91.65;49.33;;;;;;;16.64;100.00;97150.72;5045330;28;20484;-68
2022/08/27 04:37:43;;;;;;;87.70;48.90;;;;;;;16.70;100.00;97148.72;5045198;28;20045;-70
2022/08/27 04:40:09;;;;;;;92.25;49.92;;;;;;;16.68;100.00;97151.75;5045781;28;20056;-67
2022/08/27 04:42:36;;;;;;;97.88;50.05;;;;;;;16.68;100.00;97157.22;5046346;28;20412;-69
2022/08/27 04:45:04;;;;;;;108.63;54.63;;;;;;;16.78;100.00;97157.06;5051155;28;20053;-68
2022/08/27 04:47:31;;;;;;;102.20;53.90;;;;;;;16.73;100.00;97159.06;5055309;28;20037;-67
2022/08/27 04:49:58;;;;;;;95.03;50.28;;;;;;;16.74;100.00;97166.97;5046234;28;20045;-68
2022/08/27 04:52:24;;;;;;;98.57;52.85;;;;;;;16.70;100.00;97155.00;5045289;28;20037;-67
2022/08/27 04:54:52;;;;;;;106.47;53.42;;;;;;;16.70;100.00;97160.47;5046551;28;20049;-67
2022/08/27 04:57:18;;;;;;;97.00;53.38;;;;;;;16.69;100.00;97158.84;5045854;28;20099;-67
2022/08/27 04:59:45;;;;;;;91.00;51.58;;;;;;;16.71;100.00;97158.56;5045626;28;20491;-68
2022/08/27 05:02:11;;;;;;;88.70;50.20;;;;;;;16.66;100.00;97159.44;5045792;28;20496;-67
2022/08/27 05:04:39;;;;;;;93.00;49.42;;;;;;;16.60;100.00;97153.25;5046036;28;20049;-68
2022/08/27 05:07:08;;;;;;;81.68;47.00;;;;;;;16.66;100.00;97158.63;5045944;28;20443;-68
2022/08/27 05:09:34;;;;;;;81.47;47.38;;;;;;;16.69;100.00;97158.03;5064612;28;20044;-67
2022/08/27 05:12:01;;;;;;;80.65;47.13;;;;;;;16.75;100.00;97160.41;5055740;28;20045;-67
2022/08/27 05:14:29;;;;;;;81.97;45.80;;;;;;;16.80;100.00;97158.69;5045455;28;20037;-69
2022/08/27 05:16:56;;;;;;;71.13;42.95;;;;;;;16.76;100.00;97158.47;5048394;28;20033;-68
2022/08/27 05:19:23;;;;;;;79.88;47.03;;;;;;;16.76;100.00;97156.56;5045805;28;20048;-69
2022/08/27 05:21:52;;;;;;;82.47;46.80;;;;;;;16.76;100.00;97151.09;5044967;28;20772;-70
2022/08/27 05:24:19;;;;;;;82.68;46.88;;;;;;;16.78;100.00;97154.31;5045612;28;20041;-67
2022/08/27 05:26:47;;;;;;;80.18;46.05;;;;;;;16.82;100.00;97159.19;5046016;28;20221;-68
2022/08/27 05:29:13;;;;;;;79.93;44.95;;;;;;;16.78;100.00;97154.31;5045193;28;20569;-66
2022/08/27 05:31:41;;;;;;;77.32;44.30;;;;;;;16.84;100.00;97148.78;5045729;28;20091;-64
2022/08/27 05:34:08;;;;;;;79.30;45.33;;;;;;;16.84;100.00;97157.00;5048365;28;20045;-69
2022/08/27 05:36:39;;;;;;;77.13;42.23;;;;;;;16.89;100.00;97156.91;5048716;28;20041;-69
2022/08/27 05:39:15;;;;;;;73.57;42.35;;;;;;;16.90;100.00;97156.59;5065764;28;20546;-68
2022/08/27 05:41:42;;;;;;;70.32;42.08;;;;;;;16.93;100.00;97157.09;5035450;28;20102;-68
2022/08/27 05:44:09;;;;;;;76.18;43.17;;;;;;;16.96;100.00;97151.88;5031987;28;20509;-67
2022/08/27 05:46:56;;;;;;;69.90;42.20;;;;;;;16.94;100.00;97159.53;5048880;28;20115;-66
2022/08/27 05:49:22;;;;;;;65.57;40.15;;;;;;;16.96;100.00;97154.59;5049257;28;20150;-67
2022/08/27 05:51:49;;;;;;;64.10;39.65;;;;;;;17.03;100.00;97154.22;5044774;28;20044;-69
2022/08/27 05:54:18;;;;;;;66.78;40.00;;;;;;;17.01;100.00;97154.50;5037562;28;20045;-68
2022/08/27 05:56:45;;;;;;;58.15;37.03;;;;;;;17.07;100.00;97151.72;5037595;28;20030;-68
2022/08/27 06:02:01;;;;;;;66.78;40.75;;;;;;;17.08;100.00;97154.16;5043876;28;20586;-67
2022/08/27 06:04:27;;;;;;;59.80;37.83;;;;;;;17.02;100.00;97161.59;5042553;28;20037;-68
2022/08/27 06:06:54;;;;;;;59.40;37.25;;;;;;;17.12;100.00;97155.19;5042790;28;20041;-68
2022/08/27 06:09:24;;;;;;;62.88;39.78;;;;;;;17.09;100.00;97160.41;5042008;28;20060;-69
2022/08/27 06:11:56;;;;;;;65.50;40.17;;;;;;;17.14;100.00;97158.41;5042332;28;20048;-70
2022/08/27 06:14:23;;;;;;;68.28;41.20;;;;;;;17.25;100.00;97160.97;5047867;28;20045;-68
2022/08/27 06:16:50;;;;;;;70.72;39.95;;;;;;;17.22;100.00;97153.38;5060756;28;20045;-69
2022/08/27 06:19:16;;;;;;;65.28;40.17;;;;;;;17.21;100.00;97160.75;5045786;28;20056;-68
2022/08/27 06:21:43;;;;;;;66.75;38.85;;;;;;;17.29;100.00;97157.31;5048088;28;20094;-69
2022/08/27 06:24:11;;;;;;;61.25;37.13;;;;;;;17.32;100.00;97149.63;5048358;28;20055;-69
2022/08/27 06:26:41;;;;;;;63.13;39.50;;;;;;;17.35;100.00;97158.03;5048760;28;20120;-68
2022/08/27 06:29:10;;;;;;;59.97;36.70;;;;;;;17.43;100.00;97156.53;5048792;28;20515;-69
2022/08/27 06:31:37;;;;;;;57.25;37.28;;;;;;;17.43;100.00;97164.75;5049246;28;20110;-68
2022/08/27 06:34:07;;;;;;;55.80;36.88;;;;;;;17.54;100.00;97160.72;5048646;28;20075;-71
2022/08/27 06:36:40;;;;;;;54.80;34.90;;;;;;;17.59;100.00;97167.19;5048283;28;20048;-69
2022/08/27 06:39:07;;;;;;;53.67;35.85;;;;;;;17.61;100.00;97164.97;5063618;28;20489;-68
2022/08/27 06:41:34;;;;;;;53.55;34.90;;;;;;;17.50;100.00;97165.16;5042788;28;20048;-71
2022/08/27 06:44:10;;;;;;;55.40;35.17;;;;;;;17.63;100.00;97170.94;5043759;28;20596;-69
2022/08/27 06:46:37;;;;;;;55.00;35.28;;;;;;;17.66;100.00;97173.88;5049454;28;20045;-70
2022/08/27 06:49:04;;;;;;;52.80;35.70;;;;;;;17.58;100.00;97176.53;5047547;28;20048;-71
2022/08/27 06:51:34;;;;;;;48.15;33.83;;;;;;;17.70;100.00;97176.03;5048532;28;20055;-68
2022/08/27 06:54:03;;;;;;;53.75;33.17;;;;;;;17.85;100.00;97175.72;5047836;28;20099;-71
2022/08/27 06:56:30;;;;;;;47.83;32.22;;;;;;;17.95;100.00;97174.72;5047705;28;20044;-68
2022/08/27 06:59:00;;;;;;;58.42;35.97;;;;;;;18.08;100.00;97173.09;5048254;28;20040;-68
2022/08/27 07:01:33;;;;;;;49.63;33.33;;;;;;;18.11;100.00;97175.22;5047941;28;20570;-69
2022/08/27 07:04:03;;;;;;;52.92;33.67;;;;;;;18.10;100.00;97172.78;5048148;28;20045;-68
2022/08/27 07:06:35;;;;;;;46.67;30.87;;;;;;;17.98;100.00;97171.34;5047965;28;20504;-69
2022/08/27 07:09:02;;;;;;;46.70;31.80;;;;;;;18.04;100.00;97172.88;5028109;28;20272;-70
2022/08/27 07:11:31;;;;;;;45.53;29.83;;;;;;;18.16;100.00;97168.81;5046058;28;20085;-68
2022/08/27 07:13:58;;;;;;;46.53;29.98;;;;;;;18.29;100.00;97165.25;5048010;28;20044;-68
2022/08/27 07:16:26;;;;;;;47.05;32.15;;;;;;;18.22;100.00;97173.09;5047635;28;20033;-71
2022/08/27 07:18:56;;;;;;;50.38;31.73;;;;;;;18.02;100.00;97175.09;5047583;28;20047;-68
2022/08/27 07:21:27;;;;;;;51.13;32.10;;;;;;;18.14;100.00;97182.03;5047552;28;20730;-68
2022/08/27 07:23:57;;;;;;;51.22;31.13;;;;;;;18.17;100.00;97175.94;5047980;28;20055;-70
2022/08/27 07:26:24;;;;;;;49.35;31.38;;;;;;;18.06;100.00;97184.31;5047747;28;20436;-69
2022/08/27 07:28:52;;;;;;;44.20;31.00;;;;;;;18.03;100.00;97179.44;5047391;28;20057;-68
2022/08/27 07:31:21;;;;;;;48.85;34.33;;;;;;;18.05;100.00;97190.94;5047862;28;20052;-69
2022/08/27 07:33:48;;;;;;;45.30;33.25;;;;;;;18.01;100.00;97191.84;5047345;28;20091;-68
2022/08/27 07:36:19;;;;;;;45.38;31.38;;;;;;;17.91;100.00;97190.94;5047519;28;20116;-69
2022/08/27 07:38:45;;;;;;;47.95;33.17;;;;;;;17.86;100.00;97192.97;5047921;28;20110;-68
2022/08/27 07:41:28;;;;;;;46.70;32.88;;;;;;;17.82;100.00;97198.25;5052257;28;20071;-69
2022/08/27 07:46:46;;;;;;;51.92;34.88;;;;;;;17.85;100.00;97205.84;5058408;28;20041;-69
2022/08/27 07:49:17;;;;;;;48.63;34.05;;;;;;;17.76;100.00;97208.47;5045305;28;20516;-71
2022/08/27 07:51:44;;;;;;;48.53;34.22;;;;;;;17.89;100.00;97206.06;5046591;28;20071;-70
2022/08/27 07:54:11;;;;;;;53.35;33.92;;;;;;;18.02;100.00;97212.66;5046944;28;20424;-68
2022/08/27 07:56:37;;;;;;;48.72;33.70;;;;;;;17.96;100.00;97203.72;5046050;28;20041;-68
2022/08/27 07:59:04;;;;;;;48.08;34.58;;;;;;;18.18;100.00;97207.69;5043653;28;20267;-71
2022/08/27 08:01:31;;;;;;;50.60;33.45;;;;;;;18.28;100.00;97210.22;5047007;28;20045;-69
2022/08/27 08:03:58;;;;;;;43.13;31.08;;;;;;;18.41;100.00;97199.53;5046893;28;20045;-68
2022/08/27 08:06:25;;;;;;;47.05;31.70;;;;;;;18.61;100.00;97211.97;5045975;28;20052;-68
2022/08/27 08:08:52;;;;;;;44.55;32.22;;;;;;;18.75;100.00;97205.66;5032154;28;20045;-69
2022/08/27 08:11:19;;;;;;;44.38;30.13;;;;;;;18.89;100.00;97203.66;5049125;28;20091;-68
2022/08/27 08:13:46;;;;;;;40.28;29.95;;;;;;;18.78;100.00;97208.56;5046849;28;20122;-68
2022/08/27 08:16:13;;;;;;;40.17;29.40;;;;;;;18.72;100.00;97215.28;5052465;28;20048;-71
2022/08/27 08:18:40;;;;;;;37.38;27.73;;;;;;;18.61;100.00;97209.22;5046051;28;20051;-68
2022/08/27 08:21:11;;;;;;;35.50;27.50;;;;;;;18.44;100.00;97212.63;5037960;28;20401;-69
2022/08/27 08:23:38;;;;;;;41.78;28.67;;;;;;;18.47;100.00;97214.75;5046937;28;20048;-69
2022/08/27 08:26:05;;;;;;;38.88;26.98;;;;;;;18.33;100.00;97214.78;5046721;28;20094;-68
2022/08/27 08:28:32;;;;;;;41.20;30.08;;;;;;;18.24;100.00;97225.63;5045578;28;20044;-69
2022/08/27 08:30:59;;;;;;;40.88;29.55;;;;;;;18.27;100.00;97213.25;5046583;28;20040;-68
2022/08/27 08:33:30;;;;;;;41.40;28.63;;;;;;;18.42;100.00;97223.06;5046441;28;20045;-69
2022/08/27 08:36:08;;;;;;;40.95;28.98;;;;;;;18.46;100.00;97221.34;5046903;28;20041;-68
2022/08/27 08:38:36;;;;;;;38.88;27.92;;;;;;;18.51;100.00;97220.44;5046800;28;20037;-68
2022/08/27 08:41:04;;;;;;;39.60;28.63;;;;;;;18.55;100.00;97219.53;5055187;28;20504;-68
2022/08/27 08:43:30;;;;;;;34.95;27.65;;;;;;;18.42;100.00;97229.38;5046388;28;20519;-68
2022/08/27 08:46:06;;;;;;;38.45;27.55;;;;;;;18.47;100.00;97223.00;5058575;28;20041;-69
2022/08/27 08:48:36;;;;;;;39.67;29.02;;;;;;;18.44;100.00;97226.34;5066631;28;20052;-68
2022/08/27 08:51:12;;;;;;;42.17;29.73;;;;;;;18.21;100.00;97237.22;5047225;28;20044;-68
2022/08/27 08:53:57;;;;;;;41.47;29.23;;;;;;;18.16;100.00;97240.06;5045321;28;20543;-70
2022/08/27 08:56:39;;;;;;;42.70;27.73;;;;;;;18.14;100.00;97239.56;5045915;28;20673;-70
2022/08/27 08:59:26;;;;;;;42.65;29.75;;;;;;;18.14;100.00;97237.63;5046060;28;20566;-70
2022/08/27 09:01:53;;;;;;;39.42;28.88;;;;;;;18.09;100.00;97239.66;5045772;28;20064;-68
2022/08/27 09:04:22;;;;;;;42.83;28.98;;;;;;;17.96;100.00;97242.06;5046052;28;20075;-70
2022/08/27 09:07:27;;;;;;;44.80;31.27;;;;;;;18.02;100.00;97245.53;5046105;28;20165;-68
2022/08/27 09:10:18;;;;;;;43.47;31.25;;;;;;;17.89;100.00;97247.94;5042810;28;20053;-67
2022/08/27 09:12:44;;;;;;;46.67;30.30;;;;;;;17.96;100.00;97249.47;5045909;28;20064;-70
2022/08/27 09:15:16;;;;;;;48.75;31.17;;;;;;;17.90;100.00;97246.84;5050996;28;20044;-68
2022/08/27 09:17:42;;;;;;;;;;;;;;;18.03;100.00;97247.94;5051997;28;20094;-69
2022/08/27 09:20:11;;;;;;;47.50;31.20;;;;;;;18.10;100.00;97244.03;5045789;28;19925;-67
2022/08/27 09:22:50;;;;;;;48.00;32.50;;;;;;;18.26;100.00;97248.09;5045508;28;20066;-70
2022/08/27 09:25:23;;;;;;;40.85;30.42;;;;;;;18.29;100.00;97250.22;5045884;28;20056;-69
2022/08/27 09:27:53;;;;;;;45.63;28.05;;;;;;;18.35;100.00;97250.91;5045653;28;20125;-69
2022/08/27 09:30:29;;;;;;;40.35;28.33;;;;;;;18.52;100.00;97246.72;5045277;28;20046;-68
2022/08/27 09:32:59;;;;;;;38.83;28.58;;;;;;;18.51;100.00;97248.66;5045864;28;20116;-70
2022/08/27 09:35:33;;;;;;;42.45;29.63;;;;;;;18.67;100.00;97242.84;5045324;28;20048;-68
2022/08/27 09:38:01;;;;;;;39.85;26.60;;;;;;;18.84;100.00;97236.69;5045956;28;20485;-68
2022/08/27 09:40:31;;;;;;;37.90;27.10;;;;;;;19.01;100.00;97241.50;5054954;28;20052;-69
2022/08/27 09:43:06;;;;;;;35.97;25.70;;;;;;;19.19;100.00;97247.16;5064123;28;20051;-69
2022/08/27 09:45:33;;;;;;;34.40;25.20;;;;;;;19.35;100.00;97236.63;5048488;28;20041;-70
2022/08/27 09:48:12;;;;;;;32.60;23.25;;;;;;;19.44;100.00;97240.22;5045105;28;20048;-68
2022/08/27 09:50:45;;;;;;;39.00;27.08;;;;;;;19.35;100.00;97236.63;5045954;28;20041;-70
2022/08/27 09:53:27;;;;;;;28.90;23.92;;;;;;;19.49;100.00;97242.03;5044931;28;20045;-70
2022/08/27 09:55:58;;;;;;;27.85;22.48;;;;;;;19.56;100.00;97233.34;5045710;28;20041;-71
2022/08/27 09:58:25;;;;;;;37.90;23.95;;;;;;;19.60;99.82;97237.06;5045449;28;20140;-68
2022/08/27 10:01:20;;;;;;;35.30;23.13;;;;;;;19.62;98.82;97230.16;5045132;28;20099;-70
2022/08/27 10:03:47;;;;;;;30.90;22.17;;;;;;;19.58;100.00;97236.59;5035199;28;20416;-69
2022/08/27 10:06:28;;;;;;;27.83;21.42;;;;;;;19.74;97.46;97236.97;5031471;28;20041;-68
2022/08/27 10:09:09;;;;;;;28.50;20.70;;;;;;;19.65;97.76;97228.72;5045479;28;20060;-69
2022/08/27 10:11:43;;;;;;;30.85;20.73;;;;;;;19.63;97.72;97231.78;5049958;28;20049;-71
2022/08/27 10:14:19;;;;;;;28.55;20.98;;;;;;;19.68;95.94;97230.03;5045406;28;20049;-69
2022/08/27 10:17:05;;;;;;;26.55;21.25;;;;;;;19.63;97.88;97230.97;5049511;28;20045;-69
2022/08/27 10:19:41;;;;;;;27.77;21.58;;;;;;;19.57;99.21;97233.03;5046732;28;20497;-68
2022/08/27 10:22:17;;;;;;;29.65;21.67;;;;;;;19.56;99.94;97234.16;5049413;28;20041;-69
2022/08/27 10:24:56;;;;;;;30.75;21.52;;;;;;;19.63;98.36;97234.53;5049027;28;20099;-70
2022/08/27 10:27:50;;;;;;;30.10;21.10;;;;;;;19.68;97.07;97235.50;5048414;28;20040;-71
2022/08/27 10:30:31;;;;;;;25.63;21.67;;;;;;;19.66;97.90;97241.31;5048983;28;20071;-73
2022/08/27 10:33:14;;;;;;;29.98;21.92;;;;;;;19.58;98.79;97239.34;5048929;28;20051;-71
2022/08/27 10:35:50;;;;;;;29.67;22.52;;;;;;;19.67;100.00;97236.63;5047495;28;20186;-70
2022/08/27 10:38:32;;;;;;;31.25;22.63;;;;;;;19.73;100.00;97240.88;5047259;28;20033;-69
2022/08/27 10:41:14;;;;;;;26.58;20.90;;;;;;;19.89;97.69;97230.25;5050825;28;20098;-73
2022/08/27 10:44:10;;;;;;;30.13;21.83;;;;;;;19.99;98.64;97232.78;5048725;28;20040;-69
2022/08/27 10:47:01;;;;;;;30.77;22.58;;;;;;;19.90;97.32;97229.13;5056479;28;20045;-69
2022/08/27 10:49:40;;;;;;;27.38;21.38;;;;;;;20.17;96.92;97232.84;5048875;28;20055;-70
2022/08/27 10:52:45;;;;;;;30.00;22.58;;;;;;;20.49;93.83;97230.78;5047005;28;20036;-69
2022/08/27 10:55:33;;;;;;;28.08;21.23;;;;;;;20.67;91.85;97236.31;5046290;28;20049;-69
2022/08/27 10:58:25;;;;;;;25.65;20.58;;;;;;;20.66;88.38;97242.94;5047591;28;20045;-69
2022/08/27 11:01:04;;;;;;;26.40;20.38;;;;;;;20.31;91.60;97246.44;5048225;28;20424;-72
2022/08/27 11:03:39;;;;;;;27.50;21.65;;;;;;;19.93;92.52;97250.50;5048793;28;20128;-71
2022/08/27 11:06:23;;;;;;;25.17;19.75;;;;;;;20.05;94.57;97244.41;5047739;28;20500;-68
2022/08/27 11:08:57;;;;;;;23.38;18.98;;;;;;;20.10;92.02;97248.97;5048365;28;20293;-73
2022/08/27 11:11:35;;;;;;;27.83;21.30;;;;;;;20.04;95.28;97253.78;5057668;28;20036;-68
2022/08/27 11:14:36;;;;;;;26.05;21.38;;;;;;;19.99;95.31;97252.00;5047040;28;20128;-71
2022/08/27 11:17:28;;;;;;;25.17;20.65;;;;;;;20.01;95.42;97246.16;5047455;28;20072;-71
2022/08/27 11:20:17;;;;;;;31.45;22.58;;;;;;;20.10;96.00;97244.28;5030335;28;20114;-69
2022/08/27 11:22:49;;;;;;;27.42;21.52;;;;;;;20.13;96.18;97251.88;5047624;28;20041;-71
2022/08/27 11:25:22;;;;;;;32.63;23.27;;;;;;;20.02;96.93;97248.59;5047894;28;20057;-68
2022/08/27 11:27:52;;;;;;;30.00;24.80;;;;;;;20.01;98.71;97248.91;5037398;28;20041;-72
2022/08/27 11:30:34;;;;;;;33.00;23.67;;;;;;;19.86;98.41;97253.69;5041789;28;20056;-72
2022/08/27 11:33:45;;;;;;;37.80;25.33;;;;;;;19.90;99.60;97248.38;5040042;28;20516;-72